Tiempo atmosférico en la estación meteorológica de Tomelloso, Ciudad Real (662 m.)



Fecha
DESCASC
Temp. máxima en grados centígrados (hora)
DESCASC
Temp. mínima en grados centígrados (hora)
DESCASC
Temp. media en grados centígrados
DESCASC
Racha de viento máxima en m/sg (hora)
DESCASC
Velocidad máxima media en intervalos de 10 minutos(hora)
DESCASC
Precipitaciones diarias en mm
DESCASC
Precipitaciones de 00:00 a 06:00 en mm
DESCASC
Precipitaciones de 06:00 a 12:00 en mm
DESCASC
Precipitaciones de 12:00 a 18:00 en mm
DESCASC
Precipitaciones de 18:00 a 24:00 en mm
DESCASC
05-04-2020 21.6 (18:50) 7.7 (08:30) 14.7 6.94 (20:00) 3.89 (18:20) 0 0 0 0 0
04-04-2020 20.6 (15:30) 3.5 (07:00) 12.1 -- (--) -- (--) 0 0 0 0 0
03-04-2020 17.1 (18:40) 3.8 (07:10) 10.5 -- (--) -- (--) 0.2 0 0.2 0 0
02-04-2020 16.3 (18:30) 4.2 (00:00) 10.2 -- (--) -- (--) 2 0 0 0 2
01-04-2020 15.3 (17:00) 6.5 (00:00) 10.9 9.17 (15:10) 5 (15:00) -- 0 0 -- 0
31-03-2020 15.5 (15:30) 5.3 (00:00) 10.4 -- (--) -- (--) 0 0 0 0 0
30-03-2020 12.6 (15:00) 6.2 (00:00) 9.4 9.44 (23:50) 6.67 (23:30) 0 0 0 0 0
29-03-2020 18.6 (17:50) 0.1 (00:00) 9.4 -- (--) -- (--) 0 0 0 0 0
28-03-2020 13.5 (17:30) 0.9 (00:00) 7.2 9.17 (16:10) 5.83 (09:10) 0 0 0 0 0
27-03-2020 7.3 (00:10) 1.8 (00:00) 4.6 15 (11:30) 10.56 (09:50) 0.2 0 0 0.2 0
26-03-2020 18.1 (16:40) 6.1 (00:00) 12.1 10.83 (15:20) 4.17 (15:20) 0.4 0.4 0 0 0
25-03-2020 17.2 (17:20) 0.4 (00:00) 8.8 13.61 (22:40) 8.33 (22:40) 1.2 0 0 0 1.2
24-03-2020 12.1 (13:30) 6.4 (00:00) 9.3 17.5 (12:50) 13.06 (12:20) 0 0 0 0 0
23-03-2020 16.1 (15:00) 5 (00:00) 10.6 -- (--) -- (--) -- 0 0 0 --
22-03-2020 13 (15:20) 3.8 (00:00) 8.4 -- (--) -- (--) 3.6 0 0 0.2 3.4
21-03-2020 9.8 (09:10) 2.9 (00:00) 6.4 -- (--) -- (--) 0.6 0 0 0.6 0
20-03-2020 17.8 (15:10) 5.4 (00:00) 11.6 13.89 (16:20) 10 (16:30) 0 0 0 0 0
19-03-2020 16.6 (14:40) 4.7 (00:00) 10.7 11.94 (16:10) 8.89 (16:30) 0 0 0 0 0
18-03-2020 13.6 (17:50) 8 (00:00) 10.8 11.94 (03:00) 8.89 (13:20) 0 0 0 0 0
17-03-2020 15.3 (14:30) 0.7 (00:00) 8 13.89 (17:00) 10 (17:10) 0.2 0 0.2 0 0
16-03-2020 11.5 (00:00) 3.3 (00:00) 7.4 11.39 (05:40) 6.11 (18:00) 13 12.2 0.6 0 0.2
15-03-2020 22.5 (16:40) 6.3 (00:00) 14.4 11.39 (21:00) 5.83 (21:10) 0 0 0 0 0
14-03-2020 22.7 (15:30) 4.8 (00:00) 13.8 5 (14:40) 3.33 (23:30) 0 0 0 0 0
13-03-2020 24.9 (16:50) 10.3 (23:59) 17.6 6.67 (19:40) 4.72 (19:00) 0 0 0 0 0
12-03-2020 28.8 (15:20) 6 (00:00) 17.4 6.39 (16:00) 3.33 (15:50) 0 0 0 0 0
11-03-2020 27.8 (16:00) 4.4 (00:00) 16.1 3.89 (14:40) 2.5 (05:40) 0 0 0 0 0
10-03-2020 24 (17:00) 2.2 (00:00) 13.1 5 (16:10) 2.22 (07:20) 0 0 0 0 0
09-03-2020 18.8 (15:40) 2.8 (00:00) 10.8 8.06 (16:10) 3.61 (15:50) 0 0 0 0 0

Gráficas

Temp. máximas Temp. mínimas Temp. medias Precipitaciones Rachas de viento máximas Velocidades máximas media en intervalos de 10 minutos

Datos horarios

Fecha y hora oficial Temperatura (ºC) Velocidad del viento (km/h) Dirección del viento Racha (km/h) Dirección de racha Precipitación (mm) Presión (hPa) Tendencia (hPa) Humedad (%)
2020-04-07 23:00:00 12.7 10 Este 15 Este 0 946.8 1.3 87
2020-04-07 22:00:00 13.7 9 Este 19 Este 0 946.5 1.4 85
2020-04-07 21:00:00 15.3 13 Este 23 Este 0 945.7 0.4 77
2020-04-07 20:00:00 17.6 13 Este 23 Sudeste 0 945.5 -0.1 71
2020-04-07 19:00:00 18.8 16 Este 25 Este 0 945.1 -0.7 66
2020-04-07 18:00:00 18.9 17 Este 23 Este 0.2 945.3 -1.1 72
2020-04-07 17:00:00 18.1 15 Este 28 Este 0 945.6 -1.2 70
2020-04-07 16:00:00 19.5 14 Este 23 Sudeste 0 945.8 -1.3 67
2020-04-07 15:00:00 18.4 10 Nordeste 22 Nordeste 0 946.4 -1 69
2020-04-07 14:00:00 17.4 10 Nordeste 15 Nordeste 0 946.8 -0.6 72
2020-04-07 13:00:00 16.4 8 Este 20 Este 0 947.1 0.1 80
2020-04-07 12:00:00 16.3 12 Este 18 Este 0 947.4 0.7 84
2020-04-07 11:00:00 14.9 6 Este 11 Nordeste 0 947.4 1.1 88
2020-04-07 10:00:00 12.8 7 Nordeste 11 Nordeste 0 947 1 93
2020-04-07 09:00:00 12.3 4 Sur 7 Sur 0 946.7 0.9 96
2020-04-07 08:00:00 10.8 4 Sur 7 Sur 0.2 946.3 0.4 98
2020-04-07 07:00:00 11 3 Sudeste 4 Sudeste 0 946 -0.2 97
2020-04-07 06:00:00 11.7 2 Oeste 9 Sudeste 0 945.8 -0.4 96
2020-04-07 05:00:00 12 3 Este 6 Nordeste 0 945.9 -0.3 96
2020-04-07 04:00:00 12.3 3 Norte 6 Noroeste 0 946.2 0 96
2020-04-07 03:00:00 12.7 5 Oeste 15 Sudoeste 2.4 946.2 -0.1 94
2020-04-07 02:00:00 13.6 7 Sudoeste 11 Sudoeste 0 946.2 0.1 86
2020-04-07 01:00:00 13.5 5 Sudoeste 9 Sudoeste 0 946.2 0.4 86
2020-04-07 00:00:00 12.4 4 Sudeste 12 Sudeste 0 946.3 1.2 90
2020-04-06 23:00:00 13.6 8 Sudeste 11 Sudeste 0 946.1 1.4 87
2020-04-06 22:00:00 14.5 6 Sudeste 8 Este 0 945.8 1.3 81
2020-04-06 21:00:00 15.9 4 Noroeste 12 Oeste 0 945.1 0.4 73
2020-04-06 20:00:00 17.4 5 Oeste 17 Sudoeste 0 944.7 -0.2 70
2020-04-06 19:00:00 17.4 9 Sur 18 Sudoeste 0 944.5 -0.6 67
2020-04-06 18:00:00 17.5 8 Oeste 25 Oeste 0 944.7 -0.3 69
2020-04-06 17:00:00 16.7 13 Oeste 29 Oeste 0 944.9 -0.2 73
2020-04-06 16:00:00 17.3 12 Oeste 24 Oeste 0 945.1 -0.3 75
2020-04-06 15:00:00 18.1 12 Oeste 23 Oeste 0 945 -0.2 64
2020-04-06 14:00:00 17.7 11 Sudoeste 20 Sudoeste 0 945.1 0.1 63
2020-04-06 13:00:00 15.7 12 Sudoeste 22 Sudoeste 0 945.4 0.9 72
2020-04-06 12:00:00 15 10 Sudoeste 21 Sudoeste 0 945.2 1.4 76
2020-04-06 11:00:00 14.1 12 Sur 22 Sudoeste 0 945 1.9 81
2020-04-06 10:00:00 13.1 5 Sur 10 Sudoeste 0 944.5 2 84
2020-04-06 09:00:00 12.9 7 Sur 16 Sudoeste 0 943.8 1.7 83
2020-04-06 08:00:00 12.9 12 Sudoeste 21 Sudoeste 0 943.1 0.8 81
2020-04-06 07:00:00 12.2 3 Sur 12 Sur 0 942.5 0.1 83
2020-04-06 06:00:00 11.4 4 Sudeste 8 Sur 0 942.1 -0.2 86
2020-04-06 05:00:00 10.2 3 Sudeste 13 Sur 0 942.3 0 85
2020-04-06 04:00:00 11.5 7 Sur 15 Sudoeste 0 942.4 0.3 81
2020-04-06 03:00:00 13 7 Sudoeste 18 Sudoeste 0 942.3 0.6 74
2020-04-06 02:00:00 13.4 7 Sudoeste 14 Sur 0 942.3 0.8 71
2020-04-06 01:00:00 14.2 7 Sudoeste 15 Sudoeste 0 942.1 1.2 69
2020-04-06 00:00:00 14.8 6 Sudoeste 20 Sudoeste 0 941.7 1.6 67
2020-04-05 23:00:00 15.9 9 Sudoeste 25 Sudoeste 0 941.5 1.8 61
2020-04-05 22:00:00 16.6 10 Sudoeste 23 Oeste 0 940.9 1.6 56
2020-04-05 21:00:00 17.7 13 Oeste 23 Sudoeste 0 940.1 0.8 50
2020-04-05 20:00:00 20 12 Oeste 25 Oeste 0 939.7 0.1 42
2020-04-05 19:00:00 20.5 10 Sur 22 Este 0 939.3 -0.5 44
2020-04-05 18:00:00 20.7 10 Este 22 Este 0 939.3 -1.2 44
2020-04-05 17:00:00 20.9 9 Sudeste 22 Sur 0 939.6 -1.9 41
2020-04-05 16:00:00 21.2 10 Sudeste 23 Este 0 939.8 -2 37
2020-04-05 15:00:00 20.7 7 Sudeste 22 Sudeste 0 940.5 -1.6 36
2020-04-05 14:00:00 19.4 8 Sur 19 Sur 0 941.5 -0.4 42
2020-04-05 13:00:00 18 5 Oeste 17 Oeste 0 941.8 0.3 42
2020-04-05 12:00:00 16.6 6 Este 12 Nordeste 0 942.1 0.7 56
2020-04-05 11:00:00 14.8 7 Norte 12 Este 0 941.9 0.6 69
2020-04-05 10:00:00 12.2 8 Este 15 Este 0 941.5 0.9 76
2020-04-05 09:00:00 8.8 9 Este 14 Este 0 941.4 1 89
2020-04-05 08:00:00 8.2 8 Este 13 Este 0 941.3 1.1 91
2020-04-05 07:00:00 8.5 9 Este 13 Este 0 940.6 0.4 91
2020-04-05 06:00:00 8.6 8 Este 12 Este 0 940.4 -0.1 92
2020-04-05 05:00:00 9.2 10 Este 14 Este 0 940.2 -0.5 90
2020-04-05 04:00:00 9.8 10 Este 15 Este 0 940.2 -0.5 88
2020-04-05 03:00:00 10.1 9 Este 16 Este 0 940.5 0.2 86
2020-04-05 02:00:00 10.6 9 Este 15 Este 0 940.7 0.8 82
2020-04-05 01:00:00 11.8 6 Este 12 Sur 0 940.7 1.3 74
2020-04-05 00:00:00 12.5 8 Sur 24 Sur 0 940.3 1.7 66
2020-04-04 23:00:00 13 15 Sur 27 Sur 0 939.9 1.9 63
2020-04-04 22:00:00 14 18 Sudeste 31 Sudeste 0 939.4 1.9 58
2020-04-04 21:00:00 15.5 15 Sur 23 Sudeste 0 938.6 1.2 53
2020-04-04 20:00:00 18.1 10 Sudoeste 22 Sudoeste 0 938 0.6 31
2020-04-04 19:00:00 19.2 6 Noroeste 21 Sudoeste 0 937.5 0 33
2020-04-04 18:00:00 19.4 9 Sudoeste 24 Sudoeste 0 937.4 -0.6 31
2020-04-04 17:00:00 20.1 10 Sudoeste 24 Sudoeste 0 937.4 -1.1 27
2020-04-04 16:00:00 20.3 10 Este 19 Sudeste 0 937.5 -1.4 29
2020-04-04 15:00:00 19.5 9 Sur 22 Sur 0 938 -1.4 29
2020-04-04 14:00:00 18.4 8 Este 23 Sur 0 938.5 -1 31
2020-04-04 13:00:00 17.3 13 Sudeste -- -- 0 938.9 -0.7 34
2020-04-04 12:00:00 14.6 -- -- -- -- 0 939.4 0 61
2020-04-04 11:00:00 11.3 -- -- -- -- 0 939.5 0.4 80
2020-04-04 10:00:00 8.3 -- -- -- -- 0 939.6 0.7 87
2020-04-04 09:00:00 5.7 -- -- -- -- 0 939.4 0.4 93
2020-04-04 08:00:00 3.6 -- -- -- -- 0 939.1 0 96
2020-04-04 07:00:00 3.5 8 Nordeste 14 Nordeste 0 938.9 -0.4 96
2020-04-04 06:00:00 4 8 Este 13 Este 0 939 -0.7 94
2020-04-04 05:00:00 4.4 7 Este 12 Nordeste 0 939.1 -0.9 94
2020-04-04 04:00:00 5.3 9 Nordeste 15 Nordeste 0 939.3 -0.8 93
2020-04-04 03:00:00 6.9 5 Sudeste 8 Sur 0 939.7 -0.4 85
2020-04-04 02:00:00 6.9 3 Sur 9 Sudeste 0 940 0.1 84
2020-04-04 01:00:00 8.1 5 Sudeste 9 Sudeste 0 940.1 0.7 80
2020-04-04 00:00:00 8.6 5 Sudeste 8 Sudeste 0 940.1 1.2 80
2020-04-03 23:00:00 10 4 Sur 6 Sur 0 939.9 1.2 78
2020-04-03 22:00:00 10.7 3 Nordeste 8 Nordeste 0 939.4 0.7 73
2020-04-03 21:00:00 12.5 5 Nordeste 7 Nordeste 0 938.9 0.1 62
2020-04-03 20:00:00 15.1 5 Nordeste 12 Noroeste 0 938.7 -0.3 51
2020-04-03 19:00:00 16.7 4 Noroeste -- -- 0 938.7 -0.8 48
2020-04-03 18:00:00 16.7 5 Noroeste -- -- 0 938.8 -1.2 45
2020-04-03 17:00:00 16.2 -- -- -- -- 0 939 -1.4 49
2020-04-03 16:00:00 15.5 6 Norte -- -- 0 939.5 -1.3 54
2020-04-03 15:00:00 14.1 10 Nordeste 15 Nordeste 0 940 -1 61
2020-04-03 14:00:00 14.5 5 Norte 15 Norte 0 940.4 -0.4 63
2020-04-03 13:00:00 13.1 6 Norte 12 Norte 0 940.8 0.4 71
2020-04-03 12:00:00 11.8 5 Nordeste 10 Sur 0 941 1 73
2020-04-03 11:00:00 9.9 4 Oeste 9 Sur 0 940.8 1.4 83
2020-04-03 10:00:00 7.6 4 Sur 12 Sur 0 940.4 1.5 90
2020-04-03 09:00:00 4.9 6 Sur -- -- 0.2 940 1.5 94
2020-04-03 08:00:00 4.2 8 Sur 12 Sur 0 939.4 1 96
2020-04-03 07:00:00 3.9 3 Sur 6 Sur 0 938.9 0.7 98
2020-04-03 06:00:00 4.7 5 Sur 8 Sudeste 0 938.5 0.4 98
2020-04-03 05:00:00 5.4 4 Nordeste 8 Norte 0 938.4 0.1 97
2020-04-03 04:00:00 6.1 4 Norte 7 Norte 0 938.2 0 96
2020-04-03 03:00:00 6.7 0 Calma 9 Nordeste 0 938.1 -0.2 95
2020-04-03 02:00:00 7.9 4 Este 8 Este 0 938.3 0.7 92
2020-04-03 01:00:00 8.6 5 Este 12 Este 0 938.2 1.2 93
2020-04-03 00:00:00 9 5 Noroeste 9 Noroeste 0 938.3 2.2 93
2020-04-02 23:00:00 8.8 4 Noroeste -- -- 0 937.6 2.2 92
2020-04-02 22:00:00 9 -- -- -- -- 0.6 937 2.5 90
2020-04-02 21:00:00 10.9 -- -- -- -- 0 936.1 2.2 79
2020-04-02 20:00:00 12.6 -- -- -- -- 0 935.4 1.3 66
2020-04-02 19:00:00 15.2 15 Norte -- -- 22.4 934.5 0.4 48
2020-04-02 18:00:00 15.5 8 Norte 19 Noroeste 0 933.9 -0.8 44
2020-04-02 17:00:00 14 8 Norte 26 Norte 0 934.1 -0.8 52
2020-04-02 16:00:00 15.6 12 Norte 26 Norte 0 934.1 -1.1 41
2020-04-02 15:00:00 14.5 13 Nordeste 24 Norte 0 934.7 -0.8 53
2020-04-02 14:00:00 13.1 13 Nordeste 23 Norte 0 934.9 -0.4 59
2020-04-02 13:00:00 12.3 10 Norte 18 Norte -- 935.2 0.1 66
2020-04-02 12:00:00 11.2 7 Nordeste 14 Norte -- 935.5 0.7 67
2020-04-02 11:00:00 10.8 3 Sudoeste 9 Sur -- 935.3 0.7 69
2020-04-02 10:00:00 9 2 Sudeste 8 Sudoeste -- 935.1 1.1 76
2020-04-02 09:00:00 5.7 7 Sur 14 Sur -- 934.8 0.6 86
2020-04-02 08:00:00 4.4 9 Sudoeste 15 Sur -- 934.6 0 90
2020-04-02 07:00:00 4.5 9 Sur 14 Sur -- 934 -1.1 91
2020-04-02 06:00:00 5.2 9 Sur 18 Sur -- 934.2 -1.4 88
2020-04-02 05:00:00 5.9 9 Sudoeste 18 Sudoeste -- 934.6 -1.3 86
2020-04-02 04:00:00 6.7 11 Sudoeste 18 Sudoeste -- 935.1 -1.1 82
2020-04-02 03:00:00 7.6 8 Sudoeste 17 Sudoeste -- 935.6 -0.5 81
2020-04-02 02:00:00 7.8 6 Sudoeste 15 Oeste -- 935.9 0.1 79
2020-04-02 01:00:00 8.2 8 Sudoeste 18 Sudoeste -- 936.2 0.7 78
2020-04-02 00:00:00 8.9 6 Oeste 16 Sudoeste -- 936.1 1.4 76
2020-04-01 23:00:00 9.3 7 Sudoeste 12 Sudoeste -- 935.8 1.3 76
2020-04-01 22:00:00 9.9 5 Sudoeste 13 Oeste -- 935.5 1.3 73
2020-04-01 21:00:00 10.7 8 Oeste 18 Oeste -- 934.7 0.4 67
2020-04-01 20:00:00 11.9 7 Oeste 21 Oeste -- 934.5 0.1 67
2020-04-01 19:00:00 14.7 9 Noroeste 23 Noroeste -- 934.2 -0.6 56
2020-04-01 18:00:00 13.9 7 Oeste 23 Oeste -- 934.3 -1 59
2020-04-01 17:00:00 14.8 9 Oeste 24 Oeste -- 934.4 -1.2 56
2020-04-01 16:00:00 13.9 12 Oeste 33 Oeste -- 934.8 -1.3 54
2020-04-01 15:00:00 12.3 18 Oeste 33 Oeste -- 935.3 -0.9 69
2020-04-01 14:00:00 13.2 12 Oeste 25 Oeste -- 935.6 -0.5 61
2020-04-01 13:00:00 11.6 10 Oeste -- -- -- 936.1 0.4 69
2020-04-01 12:00:00 11.7 12 Oeste 22 Oeste -- 936.2 1.2 72
2020-04-01 11:00:00 10.1 12 Oeste 23 Sudoeste -- 936.1 1.7 79
2020-04-01 10:00:00 9.9 10 Sudoeste 18 Sudoeste -- 935.7 1.6 85
2020-04-01 09:00:00 7.7 12 Sudoeste -- -- -- 935 0.9 91
2020-04-01 08:00:00 6.8 9 Sur 14 Sudoeste -- 934.4 0.3 97
2020-04-01 07:00:00 6.6 3 Sur 6 Sur -- 934.1 -0.2 96
2020-04-01 06:00:00 7.4 4 Sudeste 7 Sudeste -- 934.1 -0.6 95
2020-04-01 05:00:00 7.8 5 Sudeste 12 Sur -- 934.1 -0.5 95
2020-04-01 04:00:00 8.2 6 Sudeste 12 Sudeste -- 934.3 -0.1 95
2020-04-01 03:00:00 8.4 6 Sudeste 11 Oeste -- 934.7 0.5 95
2020-04-01 02:00:00 8.6 5 Noroeste 13 Noroeste -- 934.6 0.4 96
2020-04-01 01:00:00 8.8 5 Sudeste 9 Sudoeste -- 934.4 1.3 95
2020-04-01 00:00:00 8.9 5 Sur -- -- -- 934.2 1.8 93
2020-03-31 23:00:00 10.1 14 Sur 22 Sur -- 934.2 2.7 91
2020-03-31 22:00:00 10 8 Sudeste 10 Sudeste -- 933.1 1.5 93
2020-03-31 21:00:00 10.3 4 Sudeste 18 Sudeste -- 932.4 1.3 90
2020-03-31 20:00:00 10.8 10 Sudeste 19 Sur -- 931.5 1.3 84
2020-03-31 19:00:00 11 14 Sur 26 Sudoeste -- 931.6 1.5 84
2020-03-31 18:00:00 11.7 10 Sudoeste -- -- -- 931.1 0.7 79
2020-03-31 17:00:00 14.6 -- -- -- -- -- 930.2 -0.3 61
2020-03-31 16:00:00 14.9 17 Sur -- -- -- 930.1 -0.2 63
2020-03-31 15:00:00 14.4 -- -- -- -- -- 930.4 0.2 65
2020-03-31 14:00:00 13.6 -- -- -- -- -- 930.5 0.7 71
2020-03-31 13:00:00 13.1 -- -- -- -- 0 930.3 0.6 71
2020-03-31 12:00:00 12.3 -- -- -- -- 0 930.2 0.4 76
2020-03-31 11:00:00 8.8 13 Este 28 Este 0 929.8 0.8 93
2020-03-31 10:00:00 6.4 18 Este 33 Este 0 929.7 0.2 95
2020-03-31 09:00:00 5.4 20 Este 33 Este 0 929.8 0.3 95
2020-03-31 08:00:00 5.5 24 Este 33 Este 0 929 -0.5 95
2020-03-31 07:00:00 5.8 20 Este 30 Este 0 929.5 -0.5 95
2020-03-31 06:00:00 6 20 Este 36 Este 0 929.5 -1.1 94
2020-03-31 05:00:00 6.1 24 Este 33 Este 0 929.5 -2.1 95
2020-03-31 04:00:00 6.3 20 Este 30 Este 0 930 -1.9 95
2020-03-31 03:00:00 6.5 14 Este 19 Este 0 930.6 -1.8 96
2020-03-31 02:00:00 6.6 8 Este 19 Este 0 931.6 -1.1 95
2020-03-31 01:00:00 6.8 16 Este 29 Este 0 931.9 -1 94
2020-03-31 00:00:00 6.2 22 Este 34 Este 0 932.4 -0.3 94
2020-03-30 23:00:00 7 22 Este 32 Este 0 932.7 0.2 96
2020-03-30 22:00:00 6.4 9 Noroeste 21 Norte 0 932.9 0.2 96
2020-03-30 21:00:00 6.9 12 Norte 24 Norte 0 932.7 0.1 94
2020-03-30 20:00:00 8.1 13 Norte 26 Nordeste 0 932.5 -1.2 88
2020-03-30 19:00:00 8.7 14 Norte 32 Norte 0 932.7 -1.3 80
2020-03-30 18:00:00 10.8 12 Noroeste 28 Norte 0 932.6 -1.9 79
2020-03-30 17:00:00 10.9 5 Sudoeste 19 Sudoeste 0 933.7 -1.8 81
2020-03-30 16:00:00 12 9 Sudoeste 17 Sur 0 934 -2 64
2020-03-30 15:00:00 12.5 5 Oeste 12 Sudoeste 0 934.5 -1.9 61
2020-03-30 14:00:00 9.7 5 Sudoeste 13 Oeste 0 935.5 -0.9 75
2020-03-30 13:00:00 9.7 6 Oeste 19 Oeste 0 936 -0.2 71
2020-03-30 12:00:00 9.9 9 Oeste 19 Oeste 0 936.4 0.4 74
2020-03-30 11:00:00 10.3 8 Noroeste 20 Noroeste 0 936.4 0.8 65
2020-03-30 10:00:00 10.6 8 Oeste 17 Oeste 0 936.2 0.7 63
2020-03-30 09:00:00 9.3 6 Sudoeste 13 Oeste 0 936 0.1 65
2020-03-30 08:00:00 9.3 6 Oeste 17 Sudoeste 0 935.6 -0.7 63
2020-03-30 07:00:00 9.8 9 Sudoeste 15 Sudoeste 0 935.5 -1.4 60
2020-03-30 06:00:00 9.9 7 Sudoeste 19 Sudoeste 0 935.9 -1.5 60
2020-03-30 05:00:00 10 8 Sudoeste 16 Sudoeste 0 936.3 -1.6 58
2020-03-30 04:00:00 9.9 8 Sudoeste 15 Sudoeste 0 936.9 -1.4 60
2020-03-30 03:00:00 9.7 8 Sudoeste 14 Sudoeste 0 937.4 -1.1 62
2020-03-30 02:00:00 10.4 8 Sudoeste 21 Sudoeste 0 937.9 -0.6 61
2020-03-30 01:00:00 10.9 10 Sudoeste 17 Sudoeste 0 938.3 -0.2 58
2020-03-30 00:00:00 11.8 9 Oeste 19 Oeste 0 938.5 0.1 52
2020-03-29 23:00:00 12.2 5 Sudoeste 11 Oeste 0 938.5 -0.1 49
2020-03-29 22:00:00 12.2 6 Oeste 10 Oeste 0 938.5 0 48
2020-03-29 21:00:00 13.8 4 Sudoeste 13 Oeste 0 938.4 -0.2 42
2020-03-29 20:00:00 16.2 7 Oeste 20 Sudoeste 0 938.6 -0.4 33
2020-03-29 19:00:00 18.1 9 Oeste -- -- 0 938.5 -1.2 31
2020-03-29 18:00:00 18 -- -- -- -- 0 938.6 -1.9 31
2020-03-29 17:00:00 18.2 -- -- -- -- 0 939 -2.1 32
2020-03-29 16:00:00 16.8 9 Nordeste 16 Norte 0 939.7 -2.1 32
2020-03-29 15:00:00 16.9 7 Norte -- -- 0 940.5 -1.8 32
2020-03-29 14:00:00 15.9 -- -- -- -- 0 941.1 -1.3 38
2020-03-29 13:00:00 15 5 Oeste -- -- 0 941.8 -0.5 42
2020-03-29 12:00:00 13.4 -- -- -- -- 0 942.3 0 54
2020-03-29 11:00:00 10.8 4 Sudoeste 10 Sur 0 942.4 0.5 63
2020-03-29 10:00:00 7 2 Sur 5 Sudoeste 0 942.3 0.6 75
2020-03-29 09:00:00 2.5 3 Este 6 Sur 0 942.3 0.5 90
2020-03-29 08:00:00 0.5 4 Sur 8 Sur 0 941.9 0.2 94
2020-03-29 07:00:00 0.8 4 Sur 5 Noroeste 0 941.7 -0.4 94
2020-03-29 06:00:00 1.4 3 Oeste 8 Noroeste 0 941.8 -0.6 94
2020-03-29 05:00:00 1.7 3 Sur 9 Norte 0 941.7 -0.9 93
2020-03-29 03:00:00 2.2 3 Sur 4 Sur 0 942.4 0 88
2020-03-29 01:00:00 3 0 Calma 4 Sur 0 942.6 0.4 87
2020-03-29 00:00:00 4.2 0 Calma 8 Sur 0 942.6 0.6 81
2020-03-28 23:00:00 5.5 6 Sur 9 Sudeste 0 942.4 1 77
2020-03-28 22:00:00 6.7 8 Sudeste 10 Sudeste 0 942.2 1.2 75
2020-03-28 21:00:00 7.8 6 Sur 10 Sur 0 942 1.5 73
2020-03-28 20:00:00 9.9 6 Sudeste 16 Este 0 941.4 1.1 62
2020-03-28 19:00:00 11.8 12 Este 23 Este 0 941 0.7 55
2020-03-28 18:00:00 13 14 Este 24 Este 0 940.5 -0.3 48
2020-03-28 17:00:00 13.1 12 Sudeste 33 Este 0 940.3 -0.8 50
2020-03-28 16:00:00 13.1 17 Este 32 Este 0 940.3 -0.9 52
2020-03-28 15:00:00 12.5 18 Este 30 Este 0 940.8 -0.4 46
2020-03-28 14:00:00 12.4 19 Este 28 Este 0 941.1 -0.1 41
2020-03-28 13:00:00 11.8 19 Este 30 Este 0 941.2 0.2 48
2020-03-28 12:00:00 10.9 19 Este 29 Este 0 941.2 0.7 62
2020-03-28 11:00:00 9 16 Este 24 Este 0 941.2 1.2 78
2020-03-28 10:00:00 7.1 20 Este 28 Este 0 941 1.6 85
2020-03-28 09:00:00 5.1 19 Este 27 Nordeste 0 940.5 1.6 88
2020-03-28 08:00:00 2.4 11 Nordeste 18 Nordeste 0 940 1.5 93
2020-03-28 07:00:00 1.2 14 Nordeste -- -- 0 939.4 0.9 96
2020-03-28 06:00:00 1.3 9 Nordeste 13 Este 0 938.9 0.5 96
2020-03-28 05:00:00 2.3 9 Este 19 Este 0 938.5 0.4 95
2020-03-28 04:00:00 3.5 16 Este 26 Este 0 938.5 0.4 95
2020-03-28 03:00:00 3.6 15 Este 27 Este 0 938.4 0.5 95
2020-03-28 02:00:00 3.7 17 Este 26 Sudeste 0 938.1 0.2 94
2020-03-28 01:00:00 3.3 17 Este 29 Este 0 938.1 0.2 95
2020-03-28 00:00:00 3 18 Este 33 Este 0 937.9 0.6 93
2020-03-27 23:00:00 3.3 20 Este 30 Este 0 937.9 1.5 92
2020-03-27 22:00:00 3 18 Este 30 Este 0 937.9 2 93
2020-03-27 21:00:00 3 23 Este 35 Este 0 937.3 1.9 92
2020-03-27 20:00:00 3.2 23 Este 38 Este 0 936.4 1.5 91
2020-03-27 19:00:00 3.4 24 Este 40 Este 0 935.9 1.1 91
2020-03-27 18:00:00 3.6 25 Este 36 Este 0 935.4 0.9 90
2020-03-27 17:00:00 3.7 28 Este 42 Este 0 934.9 0 90
2020-03-27 16:00:00 4.3 28 Este 44 Este 0 934.8 -0.1 91
2020-03-27 15:00:00 3.8 27 Este 36 Este 0.2 934.5 0 93
2020-03-27 14:00:00 3.3 25 Este 40 Este 0 934.9 0.8 95
2020-03-27 13:00:00 2.5 26 Este 37 Este 0 934.9 1.6 95
2020-03-27 12:00:00 2.4 28 Este 54 Este 0 934.5 1.8 94
2020-03-27 11:00:00 4.1 30 Este 49 Este 0 934.1 2 87
2020-03-27 10:00:00 5.4 34 Este 53 Este 0 933.3 1.9 81
2020-03-27 09:00:00 5.6 23 Este 38 Este 0 932.7 1.2 81
2020-03-27 08:00:00 5.3 24 Este 39 Este 0 932.1 0.5 81
2020-03-27 07:00:00 5 21 Este 35 Sudeste 0 931.4 -0.3 83
2020-03-27 06:00:00 5.1 23 Este 34 Este 0 931.5 -0.5 81
2020-03-27 05:00:00 5.1 14 Este 27 Este 0 931.6 -1.1 79
2020-03-27 04:00:00 5.4 15 Este 21 Este 0 931.7 -1.3 76
2020-03-27 03:00:00 5.4 13 Este 26 Sudeste 0 932 -0.9 78
2020-03-27 02:00:00 5.3 16 Este 23 Este 0 932.7 -0.4 80
2020-03-27 01:00:00 5.9 15 Este 23 Este 0 933 0 77
2020-03-27 00:00:00 7.2 10 Nordeste 19 Este 0 932.9 0.3 66
2020-03-26 23:00:00 8 5 Nordeste 7 Nordeste 0 933.1 1.2 60
2020-03-26 22:00:00 8.6 3 Sudeste 9 Este 0 933 1.5 53
2020-03-26 21:00:00 9.2 8 Nordeste 11 Nordeste 0 932.6 1.6 46
2020-03-26 20:00:00 10.9 3 Este 18 Nordeste 0 931.9 0.9 40
2020-03-26 19:00:00 13.9 13 Nordeste 36 Norte 0 931.5 0.2 30
2020-03-26 18:00:00 16.5 15 Norte 35 Noroeste 0 931 -0.9 17
2020-03-26 17:00:00 17.8 13 Noroeste 29 Norte 0 931 -1.5 17
2020-03-26 16:00:00 17.3 13 Norte 39 Norte 0 931.3 -1.8 21
2020-03-26 15:00:00 17.1 13 Noroeste 31 Noroeste 0 931.9 -1.8 20
2020-03-26 14:00:00 16.4 9 Noroeste 31 Noroeste 0 932.5 -1.8 21
2020-03-26 13:00:00 14.3 10 Noroeste 23 Noroeste 0 933.1 -1.2 30
2020-03-26 12:00:00 12.2 10 Norte 22 Norte 0 933.7 -0.4 42
2020-03-26 11:00:00 10.6 9 Norte 18 Norte 0 934.3 0.3 51
2020-03-26 10:00:00 8.9 8 Norte 17 Norte 0 934.3 0.7 72
2020-03-26 09:00:00 8.3 9 Noroeste 19 Noroeste 0 934.1 0.6 81
2020-03-26 08:00:00 6.5 5 Oeste 18 Oeste 0 934 0.5 93
2020-03-26 07:00:00 6.5 7 Oeste 18 Oeste 0 933.6 -0.2 92
2020-03-26 06:00:00 7.3 10 Oeste 22 Oeste 0 933.5 -0.8 89
2020-03-26 05:00:00 6.5 8 Sudoeste 18 Sudoeste 0 933.5 -1.6 90
2020-03-26 04:00:00 6.5 10 Sudoeste 19 Sudoeste 0 933.8 -1.7 90
2020-03-26 03:00:00 6.9 9 Sudoeste 18 Sudoeste 0 934.3 -1.8 89
2020-03-26 02:00:00 6.8 8 Sur 14 Sur 0 935.1 -1.5 90
2020-03-26 01:00:00 7 10 Sur 16 Sur 0.4 935.5 -0.3 90
2020-03-26 00:00:00 7.2 11 Sudeste 31 Nordeste 1 936.1 -0.1 90
2020-03-25 23:00:00 7.9 24 Este 49 Norte 0.2 936.6 0.3 89
2020-03-25 22:00:00 12 11 Sudoeste 22 Sudoeste 0 935.8 -0.5 57
2020-03-25 21:00:00 12.2 7 Sudoeste 13 Sudoeste 0 936.2 -0.2 57
2020-03-25 20:00:00 13 6 Sudoeste 16 Oeste 0 936.3 -0.5 52
2020-03-25 19:00:00 14.4 8 Oeste 21 Oeste 0 936.3 -1.1 46
2020-03-25 18:00:00 15.8 10 Oeste 23 Oeste 0 936.4 -1.6 42
2020-03-25 17:00:00 15.8 8 Noroeste 19 Norte 0 936.8 -1.9 38
2020-03-25 16:00:00 15 5 Noroeste 23 Noroeste 0 937.4 -1.9 42
2020-03-25 15:00:00 15 6 Noroeste 21 Noroeste 0 938 -1.5 44
2020-03-25 14:00:00 13.6 10 Norte 23 Norte 0 938.7 -0.9 49
2020-03-25 13:00:00 13.5 7 Norte 17 Norte 0 939.3 -0.1 50
2020-03-25 12:00:00 12.1 6 Norte 15 Nordeste 0 939.5 -0.3 56
2020-03-25 11:00:00 11.2 6 Norte 14 Nordeste 0 939.6 -0.1 57
2020-03-25 10:00:00 8.7 5 Sudoeste 10 Sudoeste 0 939.4 0.1 76
2020-03-25 09:00:00 5 6 Este 9 Nordeste 0 939.8 0.3 92
2020-03-25 08:00:00 1.2 7 Este 10 Este 0 939.7 0.1 97
2020-03-25 07:00:00 1.3 5 Norte 7 Sudeste 0 939.3 -0.4 97
2020-03-25 06:00:00 1.1 4 Este 9 Este 0 939.5 -0.3 96
2020-03-25 05:00:00 1.8 7 Este 13 Nordeste 0 939.6 -0.4 94
2020-03-25 04:00:00 3.4 6 Nordeste 13 Nordeste 0 939.7 -0.2 92
2020-03-25 03:00:00 4.9 6 Este 19 Este 0 939.8 0 88
2020-03-25 02:00:00 6.2 13 Este 30 Sudeste 0 940 0.3 84
2020-03-25 01:00:00 6.1 18 Este 30 Sudeste 0 939.9 0 84
2020-03-25 00:00:00 6.4 16 Este 34 Este 0 939.8 0.2 83
2020-03-24 23:00:00 7.4 19 Sudeste 39 Sudeste 0 939.7 0.7 79
2020-03-24 22:00:00 8.3 25 Este 36 Este 0 939.9 1.1 78
2020-03-24 21:00:00 8.5 19 Este 37 Este 0 939.6 1.3 82
2020-03-24 20:00:00 8.9 24 Este 37 Este 0 939 1.2 79
2020-03-24 19:00:00 9.3 26 Este 46 Este 0 938.8 1.2 78
2020-03-24 18:00:00 9.3 36 Este 51 Este 0 938.3 0.7 78
2020-03-24 17:00:00 10 33 Este 63 Este 0 937.8 0.2 77
2020-03-24 16:00:00 10.5 41 Este 60 Este 0 937.6 -0.4 77
2020-03-24 15:00:00 11.1 41 Este 59 Este 0 937.6 -0.3 72
2020-03-24 14:00:00 11.4 39 Este 60 Este 0 937.6 -0.2 71
2020-03-24 13:00:00 11.3 38 Este 63 Este 0 938 0.2 73
2020-03-24 12:00:00 11 43 Este 60 Este 0 937.9 0.6 73
2020-03-24 11:00:00 9.8 42 Este 59 Este 0 937.8 0.3 80
2020-03-24 10:00:00 9.9 38 Este 59 Este 0 937.8 0.8 83
2020-03-24 09:00:00 10 38 Este 58 Este 0 937.3 0.4 83
2020-03-24 08:00:00 8.3 16 Este 28 Este 0 937.5 0.6 86
2020-03-24 07:00:00 8.3 22 Este 36 Este 0 937 0 87
2020-03-24 06:00:00 8.7 25 Este 41 Este 0 936.9 -0.5 82
2020-03-24 05:00:00 9 25 Este 41 Este 0 936.9 -0.8 88
2020-03-24 04:00:00 9.1 21 Este 34 Este 0 937 -1 90
2020-03-24 03:00:00 9 18 Este 28 Este 0 937.4 -0.8 90
2020-03-24 02:00:00 9 20 Este 34 Este 0 937.7 -0.8 88
2020-03-24 01:00:00 9 28 Este 39 Este 0 938 -0.3 88
2020-03-24 00:00:00 9.1 23 Este 37 Este 0 938.2 0.3 87
2020-03-23 23:00:00 9.7 24 Este 38 Este 0 938.5 1 86
2020-03-23 22:00:00 10 27 Este -- -- -- 938.3 0.9 85
2020-03-23 21:00:00 9.8 -- -- -- -- 0 937.9 1.6 86
2020-03-23 20:00:00 10.1 -- -- -- -- 0 937.5 1.4 84
2020-03-23 19:00:00 10.6 -- -- -- -- 0 937.4 1.2 81
2020-03-23 18:00:00 13.7 -- -- -- -- 0 936.3 0.2 60
2020-03-23 17:00:00 13.3 -- -- -- -- 0 936.1 -0.7 63
2020-03-23 16:00:00 13.3 -- -- -- -- 0 936.2 -1.2 61
2020-03-23 15:00:00 16.1 -- -- -- -- 0 936.1 -1.6 49
2020-03-23 14:00:00 14.6 -- -- -- -- 0 936.8 -0.9 52
2020-03-23 13:00:00 13.7 -- -- -- -- 0 937.4 -0.5 63
2020-03-23 12:00:00 13 15 Sudeste 28 Sur 0 937.7 0.3 62
2020-03-23 11:00:00 11.9 21 Sudeste 30 Este 0 937.7 0.6 65
2020-03-23 10:00:00 11 19 Sudeste -- -- 0 937.9 1.2 80
2020-03-23 09:00:00 7.5 9 Este 12 Este 0 937.4 1 98
2020-03-23 08:00:00 6.4 9 Nordeste 13 Nordeste 0 937.1 0.8 98
2020-03-23 07:00:00 5.8 6 Este 10 Este 0 936.7 0.5 98
2020-03-23 06:00:00 6.1 8 Este 15 Este 0 936.4 0 97
2020-03-23 05:00:00 5.1 5 Este 8 Este 0 936.3 -0.3 97
2020-03-23 04:00:00 5.2 3 Este 12 Sudeste 0 936.2 -0.5 95
2020-03-23 03:00:00 5.3 5 Este 10 Sudeste 0 936.4 -0.4 95
2020-03-23 02:00:00 5.6 7 Este 14 Este 0 936.6 0.1 94
2020-03-23 01:00:00 6.7 9 Este 12 Este 0 936.7 0.3 96
2020-03-23 00:00:00 6.9 4 Nordeste 9 Este 0 936.8 0.9 96
2020-03-22 23:00:00 7.1 5 Sudeste -- -- 0 936.5 1.4 95
2020-03-22 22:00:00 7 5 Sudeste -- -- 1 936.4 1.8 96
2020-03-22 21:00:00 6.7 6 Sur -- -- 1.4 935.9 2.1 95
2020-03-22 20:00:00 7.1 3 Noroeste -- -- 0.2 935.1 1.6 93
2020-03-22 19:00:00 7.6 9 Oeste -- -- 0.8 934.6 1.3 89
2020-03-22 18:00:00 9.7 12 Este -- -- 0.2 933.8 0.3 86
2020-03-22 17:00:00 9.7 12 Sudoeste -- -- 0 933.5 -0.3 83
2020-03-22 16:00:00 12.1 20 Este 35 Nordeste 0 933.3 -1.4 66
2020-03-22 15:00:00 12.3 21 Este 31 Este 0 933.5 -1.6 65
2020-03-22 14:00:00 12.6 14 Este 28 Nordeste 0 933.8 -1.3 68
2020-03-22 13:00:00 10.8 14 Este 24 Este 0 934.7 -0.5 77
2020-03-22 12:00:00 9.2 15 Este 22 Este 0 935.1 0.4 83
2020-03-22 11:00:00 8.1 13 Nordeste 18 Nordeste 0 935.1 0.5 89
2020-03-22 10:00:00 6.2 10 Nordeste 16 Nordeste 0 935.2 1 94
2020-03-22 09:00:00 5.4 10 Nordeste 16 Nordeste 0 934.7 0.9 96
2020-03-22 08:00:00 5.2 10 Este 13 Este 0 934.6 0.7 97
2020-03-22 07:00:00 5 7 Nordeste 10 Nordeste 0 934.2 0.2 97
2020-03-22 06:00:00 4.6 3 Nordeste 6 Nordeste 0 933.8 -1 96
2020-03-22 05:00:00 4.4 4 Sudeste 11 Este 0 933.9 -1 96
2020-03-22 04:00:00 4.6 7 Nordeste 9 Nordeste 0 934 -1.4 95
2020-03-22 03:00:00 4.7 5 Este 8 Sudeste 0 934.8 -1 94
2020-03-22 02:00:00 4.4 5 Este 9 Nordeste 0 934.9 -0.8 94
2020-03-22 01:00:00 4.6 6 Este 12 Sur 0 935.4 0 93
2020-03-22 00:00:00 3.8 0 Calma 10 Este 0 935.8 0.5 96
2020-03-21 23:00:00 3.1 8 Nordeste 12 Nordeste 0 935.7 0.5 95
2020-03-21 22:00:00 4.1 7 Este 13 Este 0 935.4 0.5 94
2020-03-21 21:00:00 5.1 8 Este 18 Este 0 935.3 0.7 90
2020-03-21 20:00:00 6.8 14 Este 21 Este 0 935.2 0.6 85
2020-03-21 19:00:00 8.8 15 Este 22 Este 0 934.9 -0.2 78
2020-03-21 18:00:00 9.5 8 Sudeste 13 Sur 0 934.6 -1.2 70
2020-03-21 17:00:00 9.4 9 Sudeste 16 Este 0 934.6 -1.8 73
2020-03-21 16:00:00 9.5 8 Sudeste 13 Este 0 935.1 -1.8 77
2020-03-21 15:00:00 9.3 5 Este 10 Sudeste 0 935.8 -1.3 82
2020-03-21 14:00:00 8.6 -- -- -- -- 0.2 936.4 -0.7 85
2020-03-21 13:00:00 7.7 7 Oeste 15 Oeste 0.4 936.9 0 90
2020-03-21 12:00:00 7.8 8 Oeste -- -- 0 937.1 1.1 88
2020-03-21 11:00:00 7.9 -- -- -- -- 0 937.1 1.6 80
2020-03-21 10:00:00 7.9 -- -- -- -- 0 936.9 1.5 83
2020-03-21 09:00:00 9.5 5 Sur 9 Sur 0 936 0.6 84
2020-03-21 08:00:00 8.2 6 Este 11 Sudeste 0 935.5 0 90
2020-03-21 07:00:00 7.6 7 Sudeste 15 Este 0 935.4 -0.3 91
2020-03-21 06:00:00 7.3 10 Este 15 Este 0 935.4 -0.8 92
2020-03-21 05:00:00 7.1 10 Este 15 Este 0 935.5 -1.3 94
2020-03-21 04:00:00 7.1 10 Este 20 Este 0 935.7 -1.6 92
2020-03-21 03:00:00 7.5 14 Este 22 Este 0 936.2 -1.7 90
2020-03-21 02:00:00 7.4 13 Este 17 Este 0 936.8 -1.4 90
2020-03-21 01:00:00 7.7 10 Este 20 Este 0 937.3 -0.6 88
2020-03-21 00:00:00 8.2 14 Este 23 Este 0 937.9 0.2 87
2020-03-20 23:00:00 8.6 16 Este 32 Este 0 938.2 0.7 86
2020-03-20 22:00:00 8.6 19 Este 37 Este 0 937.9 0.8 87
2020-03-20 21:00:00 9.3 21 Este 35 Este 0 937.7 0.8 84
2020-03-20 20:00:00 10.4 25 Este 41 Este 0 937.5 0.7 79
2020-03-20 19:00:00 12.1 26 Este 43 Este 0 937.1 0.1 74
2020-03-20 18:00:00 14 31 Este 46 Este 0 936.9 -0.7 61
2020-03-20 17:00:00 15.5 34 Este 50 Este 0 936.8 -1.5 56
2020-03-20 16:00:00 16.7 32 Este 43 Este 0 937 -1.9 52
2020-03-20 15:00:00 17.5 19 Este 35 Este 0 937.6 -1.6 45
2020-03-20 14:00:00 16.5 20 Este 34 Este 0 938.3 -1.3 50
2020-03-20 13:00:00 15.6 20 Este 34 Este 0 938.9 -1 50
2020-03-20 12:00:00 14.6 22 Este 32 Este 0 939.2 -0.5 56
2020-03-20 11:00:00 13.1 21 Este 31 Este 0 939.6 0.2 62
2020-03-20 10:00:00 10.5 15 Este 24 Este 0 939.9 0.6 71
2020-03-20 09:00:00 8.3 9 Este 14 Este 0 939.7 0.7 84
2020-03-20 08:00:00 5.6 9 Nordeste 12 Nordeste 0 939.4 0.4 92
2020-03-20 07:00:00 6 7 Este 12 Este 0 939.3 0.3 90
2020-03-20 06:00:00 6.3 10 Este 15 Este 0 939 -0.5 90
2020-03-20 05:00:00 7.1 12 Este 23 Este 0 939 -1 87
2020-03-20 04:00:00 8.1 15 Este 24 Este 0 939 -1.1 84
2020-03-20 03:00:00 8.1 14 Este 22 Este 0 939.5 -0.7 86
2020-03-20 02:00:00 9.2 15 Este 23 Este 0 940 -0.4 80
2020-03-20 01:00:00 9.2 13 Este 25 Este 0 940.1 -0.3 79
2020-03-20 00:00:00 9.7 12 Sudeste 26 Este 0 940.2 -0.3 80
2020-03-19 23:00:00 9.8 18 Este 27 Este 0 940.4 0.1 85
2020-03-19 22:00:00 9.5 15 Este 23 Este 0 940.4 0.3 86
2020-03-19 21:00:00 9.9 14 Este 29 Este 0 940.5 0.4 83
2020-03-19 20:00:00 11.6 17 Este 39 Este 0 940.3 0.1 72
2020-03-19 19:00:00 13 26 Este 37 Este 0 940.1 -0.5 64
2020-03-19 18:00:00 14.4 27 Este 42 Este 0 940.1 -0.9 59
2020-03-19 17:00:00 15.1 31 Este 43 Este 0 940.2 -1.7 58
2020-03-19 16:00:00 15.9 31 Este 41 Este 0 940.6 -2.2 55
2020-03-19 15:00:00 16.5 31 Este 42 Este 0 941 -2.4 52
2020-03-19 14:00:00 16.4 27 Este 41 Este 0 941.9 -2.1 53
2020-03-19 13:00:00 15.3 24 Este 37 Este 0 942.8 -1.4 57
2020-03-19 12:00:00 14.6 22 Este 36 Este 0 943.4 -0.7 61
2020-03-19 11:00:00 12.6 23 Sudeste 39 Este 0 944 0.1 66
2020-03-19 10:00:00 10.2 19 Este 32 Este 0 944.2 0.3 84
2020-03-19 09:00:00 7.6 22 Este 31 Este 0 944.1 0 89
2020-03-19 08:00:00 6 19 Este 31 Este 0 943.9 -0.5 93
2020-03-19 07:00:00 5.1 22 Este 32 Este 0 943.9 -0.5 94
2020-03-19 06:00:00 4.7 22 Este 33 Este 0 944.1 -0.8 93
2020-03-19 05:00:00 4.9 20 Este 26 Este 0 944.4 -0.8 91
2020-03-19 04:00:00 5.8 16 Este 28 Este 0 944.4 -1.2 90
2020-03-19 03:00:00 6.8 18 Este 29 Este 0 944.9 -1.1 88
2020-03-19 02:00:00 6.4 18 Este 30 Este 0 945.2 -1 85
2020-03-19 01:00:00 6.7 15 Este 28 Este 0 945.6 -0.9 81
2020-03-19 00:00:00 8 19 Este 27 Este 0 946 -0.2 77
2020-03-18 23:00:00 8.6 16 Este 24 Este 0 946.2 0.2 78
2020-03-18 22:00:00 9.2 15 Este 26 Este 0 946.5 0.9 71
2020-03-18 21:00:00 9.7 17 Este 25 Este 0 946.2 0.8 72
2020-03-18 20:00:00 10.8 17 Este 28 Este 0 946 0.3 70
2020-03-18 19:00:00 12.8 20 Este 32 Este 0 945.6 -0.4 68
2020-03-18 18:00:00 13.6 22 Este 33 Este 0 945.4 -0.6 67
2020-03-18 17:00:00 13 27 Este 39 Este 0 945.7 -1.2 69
2020-03-18 16:00:00 13.2 27 Este 41 Este 0 946 -1.6 69
2020-03-18 15:00:00 13.1 31 Este 40 Este 0 946 -1.9 70
2020-03-18 14:00:00 12.7 31 Este 43 Este 0 946.9 -1.2 74
2020-03-18 13:00:00 13 30 Este 42 Este 0 947.6 -0.4 71
2020-03-18 12:00:00 12.6 23 Este 39 Este 0 947.9 0.1 75
2020-03-18 11:00:00 12.1 25 Este 39 Este 0 948.1 0.3 78
2020-03-18 10:00:00 10.6 24 Este 32 Este 0 948 0.2 86
2020-03-18 09:00:00 9.5 16 Este 24 Este 0 947.8 0.2 88
2020-03-18 08:00:00 8.7 17 Este 24 Este 0 947.8 0.2 89
2020-03-18 07:00:00 8.5 17 Este 30 Este 0 947.8 0.4 90
2020-03-18 06:00:00 8.6 23 Este 31 Este 0 947.6 0.3 89
2020-03-18 05:00:00 8.3 14 Este 25 Sudeste 0 947.6 0.2 90
2020-03-18 04:00:00 8.8 16 Sudeste 36 Este 0 947.4 -0.4 87
2020-03-18 03:00:00 9.2 29 Este 43 Este 0 947.3 -1 84
2020-03-18 02:00:00 9.2 24 Este 35 Este 0 947.4 -1.1 86
2020-03-18 01:00:00 9.7 18 Este 35 Este 0 947.8 -0.2 84
2020-03-18 00:00:00 10 27 Este 41 Este 0 948.3 0.8 84
2020-03-17 23:00:00 11.2 31 Este 48 Este 0 948.5 1.4 83
2020-03-17 22:00:00 11.5 30 Este 46 Este 0 948 1.3 87
2020-03-17 21:00:00 11.8 29 Este 42 Este 0 947.5 1.5 86
2020-03-17 20:00:00 12.3 28 Este 39 Este 0 947.1 2 85
2020-03-17 19:00:00 12.2 22 Este 45 Este 0 946.7 1.6 87
2020-03-17 18:00:00 13.2 33 Este 48 Este 0 946 1 81
2020-03-17 17:00:00 14.9 35 Este 50 Este 0 945.1 -0.5 71
2020-03-17 16:00:00 14.4 28 Este 43 Este 0 945.1 -0.6 73
2020-03-17 15:00:00 14.6 27 Este 41 Este 0 945 -0.7 67
2020-03-17 14:00:00 14.8 26 Este 40 Sudeste 0 945.6 0.2 61
2020-03-17 13:00:00 13.5 28 Sudeste 39 Este 0 945.7 0.5 60
2020-03-17 12:00:00 11.2 26 Este 35 Este 0 945.7 1.1 71
2020-03-17 11:00:00 10.3 18 Este 33 Este 0.2 945.4 1.6 83
2020-03-17 10:00:00 8.9 24 Este 32 Este 0 945.2 2.2 86
2020-03-17 09:00:00 5.6 11 Este 18 Este 0 944.6 2.5 93
2020-03-17 08:00:00 2.7 14 Este 21 Este 0 943.8 2.1 98
2020-03-17 07:00:00 1.5 11 Este 20 Nordeste 0 943 1.6 99
2020-03-17 06:00:00 1 10 Nordeste 17 Nordeste 0 942.1 0.5 98
2020-03-17 05:00:00 1.2 9 Nordeste 15 Este 0 941.7 0.3 98
2020-03-17 04:00:00 1.2 5 Este 19 Este 0 941.4 0.1 97
2020-03-17 03:00:00 1.6 13 Este 20 Este 0 941.6 0.5 96
2020-03-17 02:00:00 1.6 12 Este 21 Este 0 941.4 0.7 95
2020-03-17 01:00:00 2.5 12 Nordeste 19 Nordeste 0 941.3 1.5 90
2020-03-17 00:00:00 3.5 9 Sur 21 Sudeste 0 941.1 2 88
2020-03-16 23:00:00 3.7 11 Sudeste 18 Este 0 940.7 2.4 90
2020-03-16 22:00:00 4.4 10 Este 14 Este 0 939.8 2.2 90
2020-03-16 21:00:00 5.3 11 Este 15 Este 0 939.1 2.2 88
2020-03-16 20:00:00 5.2 8 Este 16 Este 0 938.3 1.8 88
2020-03-16 19:00:00 5.5 13 Este 24 Este 0.2 937.6 1.4 85
2020-03-16 18:00:00 5.8 22 Este 30 Sudeste 0 936.9 0.9 81
2020-03-16 17:00:00 8 6 Oeste 20 Oeste 0 936.5 0.5 61
2020-03-16 16:00:00 8.5 11 Oeste 27 Oeste 0 936.2 -0.3 61
2020-03-16 15:00:00 8.3 11 Sudoeste 28 Oeste 0 936 -0.6 58
2020-03-16 14:00:00 7.9 14 Oeste 27 Sudoeste 0 936 -0.2 62
2020-03-16 13:00:00 5.9 15 Oeste 28 Oeste 0 936.5 0.2 67
2020-03-16 12:00:00 5.3 12 Oeste 31 Sudoeste 0 936.6 0.7 72
2020-03-16 11:00:00 4.9 14 Sudoeste 36 Sudoeste 0 936.2 1.1 74
2020-03-16 10:00:00 4.4 14 Sudoeste 30 Sudoeste 0 936.3 2 78
2020-03-16 09:00:00 3.7 14 Sudoeste 31 Sudoeste 0 935.9 1.3 84
2020-03-16 08:00:00 4.1 12 Sudoeste 30 Sudoeste 0 935.1 1.3 89
2020-03-16 07:00:00 3.3 13 Sudoeste 26 Sudoeste 0.6 934.3 0.3 91
2020-03-16 06:00:00 4.4 17 Oeste 41 Oeste 0 934.6 0.3 85
2020-03-16 05:00:00 7.2 18 Oeste 31 Oeste 1.4 933.8 -0.8 87
2020-03-16 04:00:00 8.5 14 Oeste 26 Sudoeste 1.8 934 -1.5 92
2020-03-16 03:00:00 10.4 13 Sudoeste 21 Sudoeste 4.4 934.3 -2 91
2020-03-16 02:00:00 10.3 7 Sudoeste 21 Sur 3 934.6 -2.5 90
2020-03-16 01:00:00 10.9 9 Sur 18 Sudeste 1.6 935.5 -1.5 87
2020-03-16 00:00:00 11.5 8 Sudoeste 18 Oeste 0 936.3 -0.1 81
2020-03-15 23:00:00 12.1 11 Oeste 30 Oeste 0 937.1 1.6 75
2020-03-15 22:00:00 13.5 12 Oeste 33 Oeste 0 937 2 68
2020-03-15 21:00:00 16.2 20 Sudoeste 41 Sudoeste 0 936.4 1.4 51
2020-03-15 20:00:00 17 13 Sudoeste 32 Oeste 0 935.5 0 43
2020-03-15 19:00:00 19.1 12 Sudoeste 33 Sudoeste 0 935 -1 41
2020-03-15 18:00:00 21 16 Sudoeste 37 Sudoeste 0 935 -1.5 35
2020-03-15 17:00:00 22.1 14 Oeste 32 Oeste 0 935.5 -2.2 34
2020-03-15 16:00:00 21.1 12 Sudoeste 24 Sudoeste 0 936 -2.8 42
2020-03-15 15:00:00 21.5 11 Oeste 27 Sudoeste 0 936.5 -3 41
2020-03-15 14:00:00 21.1 11 Sudoeste 24 Oeste 0 937.7 -2.3 42
2020-03-15 13:00:00 19.9 10 Sudoeste 27 Sudoeste 0 938.8 -1.4 49
2020-03-15 12:00:00 20.2 12 Sudoeste 23 Sudoeste 0 939.5 -0.8 50
2020-03-15 11:00:00 17.6 7 Sudoeste 12 Sur 0 940 -0.1 60
2020-03-15 10:00:00 14.5 3 Sudeste 8 Este 0 940.2 0.5 70
2020-03-15 09:00:00 10.8 5 Este 8 Este 0 940.3 0.6 85
2020-03-15 08:00:00 6.6 4 Este 7 Este 0 940.1 0.3 94
2020-03-15 07:00:00 6.5 5 Este 8 Este 0 939.7 -0.4 92
2020-03-15 06:00:00 7 5 Este 8 Este 0 939.7 -0.9 90
2020-03-15 05:00:00 7.9 5 Este 7 Este 0 939.8 -1.1 86
2020-03-15 04:00:00 8.6 5 Este 8 Nordeste 0 940.1 -0.8 83
2020-03-15 03:00:00 9.6 3 Nordeste 9 Nordeste 0 940.6 -0.6 80
2020-03-15 02:00:00 12 4 Norte 16 Sur 0 940.9 -0.5 71
2020-03-15 01:00:00 13.9 8 Sur 17 Sur 0 940.9 -0.4 67
2020-03-15 00:00:00 13.6 9 Sur 17 Sur 0 941.2 -0.1 69
2020-03-14 23:00:00 13.7 8 Sur 13 Sur 0 941.4 0.5 68
2020-03-14 22:00:00 14.5 6 Sur 9 Sur 0 941.3 0.7 61
2020-03-14 21:00:00 15.7 4 Sudeste 8 Sudeste 0 941.3 0.8 56
2020-03-14 20:00:00 17.3 4 Este 8 Este 0 940.9 0.2 48
2020-03-14 19:00:00 20.1 3 Sur 10 Sudeste 0 940.6 -0.4 39
2020-03-14 18:00:00 21.6 6 Sur 11 Sur 0 940.5 -0.9 35
2020-03-14 17:00:00 22.3 5 Sudoeste 14 Sur 0 940.7 -1.5 33
2020-03-14 16:00:00 22.1 8 Sudeste 16 Norte 0 941 -2 36
2020-03-14 15:00:00 22.3 5 Nordeste 18 Norte 0 941.4 -2 38
2020-03-14 14:00:00 21.1 6 Norte 14 Oeste 0 942.2 -1.6 44
2020-03-14 13:00:00 19.9 5 Oeste 12 Oeste 0 943 -1 50
2020-03-14 12:00:00 18.9 4 Norte 10 Norte 0 943.4 -0.1 57
2020-03-14 11:00:00 15.6 5 Oeste 11 Sudoeste 0 943.8 1.3 66
2020-03-14 10:00:00 12.7 3 Noroeste 8 Noroeste 0 944 1.8 75
2020-03-14 09:00:00 9.7 4 Norte 15 Norte 0 943.5 1.4 79
2020-03-14 08:00:00 5.8 3 Sudeste 6 Norte 0 942.5 0.7 90
2020-03-14 07:00:00 5.6 4 Este 6 Sudeste 0 942.2 0.6 89
2020-03-14 06:00:00 6.6 4 Nordeste 6 Nordeste 0 942.1 0.2 88
2020-03-14 05:00:00 7.1 2 Este 7 Este 0 941.8 -0.2 87
2020-03-14 04:00:00 7.7 4 Este 6 Nordeste 0 941.6 -0.4 85
2020-03-14 03:00:00 8.9 3 Norte 6 Norte 0 941.9 0.2 83
2020-03-14 02:00:00 9.5 3 Sur 6 Noroeste 0 942 0.5 82
2020-03-14 01:00:00 10.1 4 Noroeste 7 Norte 0 942 0.8 82
2020-03-14 00:00:00 10.3 6 Nordeste 12 Nordeste 0 941.7 0.9 82
2020-03-13 23:00:00 11.4 9 Este 11 Este 0 941.5 1.3 76
2020-03-13 22:00:00 13 9 Este 19 Este 0 941.2 1.8 69
2020-03-13 21:00:00 15.2 13 Este 22 Este 0 940.8 2.2 61
2020-03-13 20:00:00 17.7 15 Este 24 Este 0 940.2 1.4 52
2020-03-13 19:00:00 20.3 17 Este 23 Este 0 939.4 0.1 44
2020-03-13 18:00:00 24.2 4 Nordeste 16 Oeste 0 938.6 -0.9 21
2020-03-13 17:00:00 24.7 6 Oeste 18 Sudoeste 0 938.8 -1.5 20
2020-03-13 16:00:00 24.4 5 Oeste 18 Norte 0 939.3 -1.8 26
2020-03-13 15:00:00 24.1 7 Noroeste 14 Noroeste 0 939.5 -1.9 29
2020-03-13 14:00:00 23.3 7 Oeste 14 Oeste 0 940.3 -1.4 31
2020-03-13 13:00:00 21.7 7 Sur 14 Sudoeste 0 941.1 -0.9 36
2020-03-13 12:00:00 17.6 5 Sur 12 Sur 0 941.4 -0.1 70
2020-03-13 11:00:00 19.7 5 Sudoeste 19 Sudoeste 0 941.7 0.7 48
2020-03-13 10:00:00 17.7 8 Sudoeste 15 Sudoeste 0 942 1.1 54
2020-03-13 09:00:00 14.6 5 Sudoeste 14 Sur 0 941.5 0.8 62
2020-03-13 08:00:00 12.5 8 Sur 13 Sur 0 941 0.5 69
2020-03-13 07:00:00 12.8 7 Sur 13 Sudoeste 0 940.9 0.3 67
2020-03-13 06:00:00 13.3 10 Sudoeste 14 Sudoeste 0 940.7 -0.2 64
2020-03-13 05:00:00 13.5 9 Sur 15 Sudoeste 0 940.5 -0.7 60
2020-03-13 04:00:00 14.4 10 Sur 17 Sur 0 940.6 -0.8 53
2020-03-13 03:00:00 15.3 7 Sudoeste 15 Sudoeste 0 940.9 -0.6 47
2020-03-13 02:00:00 15.6 8 Sudoeste 17 Sudoeste 0 941.2 -0.3 47
2020-03-13 01:00:00 16 8 Sudoeste 17 Sudoeste 0 941.4 0.1 46
2020-03-13 00:00:00 17.2 9 Sudoeste 15 Sudoeste 0 941.5 0.4 44
2020-03-12 23:00:00 17.9 8 Sudoeste 15 Sudoeste 0 941.5 0.8 44
2020-03-12 22:00:00 19.1 6 Sudoeste 11 Sudoeste 0 941.3 0.9 44
2020-03-12 21:00:00 19.4 3 Oeste 9 Oeste 0 941.1 1 45
2020-03-12 20:00:00 21.5 4 Oeste 12 Noroeste 0 940.7 0.4 39
2020-03-12 19:00:00 24.1 5 Oeste 11 Noroeste 0 940.4 -0.3 28
2020-03-12 18:00:00 27.6 4 Noroeste 15 Oeste 0 940.1 -1.3 21
2020-03-12 17:00:00 27.7 5 Noroeste 20 Noroeste 0 940.3 -2.2 20
2020-03-12 16:00:00 27.9 9 Noroeste 23 Noroeste 0 940.7 -2.8 23
2020-03-12 15:00:00 28.2 9 Oeste 19 Oeste 0 941.4 -2.7 20
2020-03-12 14:00:00 28.1 8 Noroeste 19 Noroeste 0 942.5 -1.9 19
2020-03-12 13:00:00 26.1 5 Oeste 11 Noroeste 0 943.5 -0.9 25
2020-03-12 12:00:00 23.6 4 Norte 9 Noroeste 0 944.1 -0.1 31
2020-03-12 11:00:00 20.7 3 Norte 10 Nordeste 0 944.4 0.4 39
2020-03-12 10:00:00 16.2 3 Norte 5 Norte 0 944.4 0.5 54
2020-03-12 09:00:00 10.6 3 Nordeste 6 Nordeste 0 944.2 0 69
2020-03-12 08:00:00 7 3 Norte 6 Nordeste 0 944 -0.1 77
2020-03-12 07:00:00 6.2 2 Sudeste 7 Norte 0 943.9 -0.6 78
2020-03-12 06:00:00 7.2 3 Norte 6 Noroeste 0 944.2 -1.2 74
2020-03-12 05:00:00 8.6 3 Norte 8 Nordeste 0 944.1 -1.7 71
2020-03-12 04:00:00 10 3 Este 8 Sudeste 0 944.5 -1.7 67
2020-03-12 03:00:00 10.8 5 Sudeste 13 Sur 0 945.4 -0.7 63
2020-03-12 02:00:00 13.3 9 Sur 12 Sur 0 945.8 -0.1 55
2020-03-12 01:00:00 13.8 6 Sur 17 Oeste 0 946.2 0.5 52
2020-03-12 00:00:00 13.4 4 Noroeste 13 Noroeste 0 946.1 0.7 54
2020-03-11 23:00:00 13.7 6 Sudoeste 9 Sur 0 945.9 0.5 54
2020-03-11 22:00:00 16.1 4 Sur 7 Sur 0 945.7 0.3 44
2020-03-11 21:00:00 18.2 4 Sur 6 Sudeste 0 945.4 0 41
2020-03-11 20:00:00 20.7 3 Este 7 Nordeste 0 945.4 0.1 31
2020-03-11 19:00:00 24.7 3 Nordeste 7 Sur 0 945.4 -0.2 25
2020-03-11 18:00:00 27.2 2 Este 10 Norte 0 945.4 -0.6 21
2020-03-11 17:00:00 27.3 6 Nordeste 9 Sudoeste 0 945.3 -1.7 19
2020-03-11 16:00:00 27.8 4 Sudoeste 9 Este 0 945.6 -2.2 21
2020-03-11 15:00:00 26.5 5 Norte 14 Nordeste 0 946 -2.4 23
2020-03-11 14:00:00 26 4 Norte 10 Noroeste 0 947 -1.8 27
2020-03-11 13:00:00 23.4 4 Oeste 9 Oeste 0 947.8 -0.8 31
2020-03-11 12:00:00 21.5 4 Este 11 Este 0 948.4 -0.1 38
2020-03-11 11:00:00 18.4 4 Nordeste 9 Nordeste 0 948.8 0.3 46
2020-03-11 10:00:00 15.1 3 Este 5 Nordeste 0 948.6 0.3 57
2020-03-11 09:00:00 10.8 3 Sudeste 4 Sur 0 948.5 0.6 68
2020-03-11 08:00:00 4.7 0 Calma 4 Sur 0 948.5 0.6 82
2020-03-11 07:00:00 5.3 0 Calma 7 Sur 0 948.3 0.3 79
2020-03-11 06:00:00 8.4 5 Sudoeste 12 Sur 0 947.9 -0.9 71
2020-03-11 05:00:00 7.9 6 Sur 10 Sur 0 947.9 -1.1 73
2020-03-11 04:00:00 8.3 4 Sur 11 Sudoeste 0 948 -1.1 72
2020-03-11 03:00:00 7.5 6 Sur 9 Sur 0 948.8 -0.5 74
2020-03-11 02:00:00 7.1 2 Sudeste 5 Nordeste 0 949 -0.4 74
2020-03-11 01:00:00 8.7 2 Norte 6 Sur 0 949.1 0 69
2020-03-11 00:00:00 10.3 5 Sur 7 Sur 0 949.3 0.6 64
2020-03-10 23:00:00 11.3 6 Norte 11 Norte 0 949.4 0.9 58
2020-03-10 22:00:00 14.9 7 Sur 11 Sudoeste 0 949.1 0.7 48
2020-03-10 21:00:00 16.4 6 Sudoeste 11 Sudoeste 0 948.7 0.5 44
2020-03-10 20:00:00 18.8 6 Sudoeste 12 Sudoeste 0 948.5 0.3 37
2020-03-10 19:00:00 20.9 6 Sudoeste 17 Norte 0 948.4 -0.1 32
2020-03-10 18:00:00 23 6 Noroeste 18 Norte 0 948.2 -0.7 27
2020-03-10 17:00:00 24 6 Noroeste 18 Norte 0 948.2 -1.6 25
2020-03-10 16:00:00 23.7 6 Noroeste 16 Noroeste 0 948.5 -2.1 25
2020-03-10 15:00:00 22.3 5 Noroeste 17 Noroeste 0 948.9 -2.1 28
2020-03-10 14:00:00 20.2 6 Noroeste 14 Norte 0 949.8 -1.5 29
2020-03-10 13:00:00 17.7 5 Sudoeste 13 Noroeste 0 950.6 -0.4 32
2020-03-10 12:00:00 15.7 6 Sur 12 Noroeste 0 951 0.2 35
2020-03-10 11:00:00 14.3 3 Sudoeste 10 Oeste 0 951.3 1 38
2020-03-10 10:00:00 11.8 4 Sudoeste 9 Oeste 0 951 0.9 48
2020-03-10 09:00:00 8.4 3 Oeste 10 Sudoeste 0 950.8 1.7 57
2020-03-10 08:00:00 4.3 6 Sur 11 Sudoeste 0 950.3 1 72
2020-03-10 07:00:00 2.7 4 Sudoeste 8 Sur 0 950.1 0.7 78
2020-03-10 06:00:00 3.5 4 Oeste 6 Sur 0 949.1 -0.4 75
2020-03-10 05:00:00 3.8 4 Sur 5 Sur 0 949.3 -0.2 74
2020-03-10 04:00:00 4.3 4 Noroeste 8 Sur 0 949.4 -0.2 69
2020-03-10 03:00:00 4.9 6 Sur 11 Noroeste 0 949.5 -0.3 67
2020-03-10 02:00:00 6.1 6 Noroeste 9 Noroeste 0 949.5 -0.1 63
2020-03-10 01:00:00 6.6 4 Oeste 8 Sur 0 949.6 0.9 59
2020-03-10 00:00:00 7.5 2 Oeste 12 Noroeste 0 949.8 1.4 56
2020-03-09 23:00:00 9.3 6 Noroeste 17 Noroeste 0 949.6 2 48
2020-03-09 22:00:00 11 9 Noroeste 19 Noroeste 0 948.7 1.3 42
2020-03-09 21:00:00 12 8 Noroeste 17 Noroeste 0 948.4 1.4 39
2020-03-09 20:00:00 12.4 6 Noroeste 13 Norte 0 947.6 -0.1 37
2020-03-09 19:00:00 15.4 8 Noroeste 22 Norte 0 947.4 -0.1 29
2020-03-09 18:00:00 17.8 10 Noroeste 26 Noroeste 0 947 -0.8 25
2020-03-09 17:00:00 18.3 11 Noroeste 29 Noroeste 0 947.7 -0.8 25
2020-03-09 16:00:00 18.2 13 Noroeste 28 Noroeste 0 947.5 -1.9 27
2020-03-09 15:00:00 18.1 10 Noroeste 27 Noroeste 0 947.8 -2.2 28
2020-03-09 14:00:00 17.1 9 Noroeste 27 Noroeste 0 948.5 -1.2 30
2020-03-09 13:00:00 15.4 9 Noroeste 24 Noroeste 0 949.4 0.3 36
2020-03-09 12:00:00 13.9 11 Noroeste 25 Noroeste 0 950 1 47
2020-03-09 11:00:00 12.5 9 Noroeste 22 Norte 0 949.7 1.1 53
2020-03-09 10:00:00 9.6 10 Oeste 18 Oeste 0 949.1 0.7 71
2020-03-09 09:00:00 7.2 7 Sudoeste 14 Sudoeste 0 949 0.7 79
2020-03-09 08:00:00 3.4 6 Sudoeste 11 Sur 0 948.6 0.5 90
2020-03-09 07:00:00 4.1 5 Sur 11 Sudoeste 0 948.4 0.3 80
2020-03-09 06:00:00 4.4 8 Sur 11 Sur 0 948.3 0.1 84
2020-03-09 05:00:00 6.5 6 Sudoeste 14 Sudoeste 0 948.1 -0.4 79
2020-03-09 04:00:00 5.6 8 Sudoeste 12 Sur 0 948.1 -0.4 80
2020-03-09 03:00:00 7.6 6 Sudoeste 11 Sudoeste 0 948.2 0.2 72
2020-03-09 02:00:00 6.5 6 Sudoeste 10 Sur 0 948.5 0.3 72
2020-03-09 01:00:00 9 3 Oeste 13 Oeste 0 948.5 0.3 65
2020-03-09 00:00:00 10.5 6 Oeste 12 Oeste 0 948 0.2 59